Time;durP1;ratioP1;P1;durP2;ratioP2;P2;SDS_P1;SDS_P2;PMS_P1;PMS_P2;Temp;Humidity;BMP_temperature;BMP_pressure;BME280_temperature;BME280_humidity;BME280_pressure;Samples;Min_cycle;Max_cycle;Signal;HPM_P1;HPM_P2
2024/02/15 00:00:25;;;;;;;7.70;6.90;;;;;;;11.43;100.00;100517.72;10203290;28;20146;-63
2024/02/15 00:05:27;;;;;;;7.82;6.13;;;;;;;11.45;100.00;100514.94;10196677;28;20290;-62
2024/02/15 00:10:28;;;;;;;6.00;5.00;;;;;;;11.45;100.00;100521.13;10207048;28;20061;-62
2024/02/15 00:15:30;;;;;;;6.43;5.72;;;;;;;11.53;100.00;100517.84;10200465;28;20094;-63
2024/02/15 00:20:33;;;;;;;5.60;5.03;;;;;;;11.60;100.00;100518.19;10197335;28;20051;-62
2024/02/15 00:25:36;;;;;;;7.40;5.68;;;;;;;11.66;100.00;100515.88;10197812;28;20746;-63
2024/02/15 00:30:39;;;;;;;7.47;5.93;;;;;;;11.59;100.00;100512.03;10199974;28;20278;-62
2024/02/15 00:35:41;;;;;;;5.95;5.25;;;;;;;11.68;100.00;100521.09;10198568;28;20051;-64
2024/02/15 00:40:43;;;;;;;6.13;4.95;;;;;;;11.59;100.00;100517.34;10204309;28;20873;-63
2024/02/15 00:45:45;;;;;;;6.45;5.53;;;;;;;11.63;100.00;100523.28;10204455;28;20149;-64
2024/02/15 00:50:47;;;;;;;6.47;5.25;;;;;;;11.62;100.00;100511.78;10197928;28;20698;-64
2024/02/15 00:55:51;;;;;;;6.18;4.95;;;;;;;11.66;100.00;100515.03;10195455;28;20561;-62
2024/02/15 01:00:56;;;;;;;5.22;4.57;;;;;;;11.66;100.00;100518.56;10196712;28;20060;-63
2024/02/15 01:05:57;;;;;;;;;;;;;;;11.71;100.00;100517.31;10181907;28;20055;-63
2024/02/15 01:10:58;;;;;;;6.20;5.20;;;;;;;11.71;100.00;100520.84;10197746;28;19961;-63
2024/02/15 01:16:03;;;;;;;5.93;4.68;;;;;;;11.70;100.00;100519.16;10193332;28;20047;-63
2024/02/15 01:21:04;;;;;;;5.53;3.90;;;;;;;11.66;100.00;100523.91;10198028;28;20054;-63
2024/02/15 01:26:12;;;;;;;7.43;3.95;;;;;;;11.68;100.00;100516.59;10189696;28;20047;-63
2024/02/15 01:31:16;;;;;;;4.32;3.67;;;;;;;11.65;100.00;100505.34;10206352;28;20083;-63
2024/02/15 01:36:18;;;;;;;5.63;3.90;;;;;;;11.75;100.00;100532.09;10195532;28;20043;-63
2024/02/15 01:41:20;;;;;;;6.55;3.90;;;;;;;11.71;100.00;100512.84;10206455;28;20051;-61
2024/02/15 01:46:22;;;;;;;4.55;3.67;;;;;;;11.81;100.00;100515.59;10189782;28;20059;-62
2024/02/15 01:51:26;;;;;;;5.80;3.75;;;;;;;11.75;100.00;100513.44;10201498;28;20765;-63
2024/02/15 01:56:28;;;;;;;;;;;;;;;11.79;100.00;100505.06;10203657;28;20173;-63
2024/02/15 02:01:35;;;;;;;6.22;3.90;;;;;;;11.80;100.00;100505.91;10213904;28;19937;-63
2024/02/15 02:06:37;;;;;;;6.68;4.13;;;;;;;11.79;100.00;100514.88;10190729;28;20595;-64
2024/02/15 02:11:40;;;;;;;4.70;3.20;;;;;;;11.80;100.00;100500.56;10207114;28;20058;-63
2024/02/15 02:16:41;;;;;;;4.35;3.95;;;;;;;11.81;100.00;100507.59;10193616;28;20066;-62
2024/02/15 02:21:44;;;;;;;6.05;3.55;;;;;;;11.76;100.00;100507.13;10199367;28;20076;-63
2024/02/15 02:26:45;;;;;;;4.15;3.75;;;;;;;11.77;100.00;100503.47;10204760;28;20063;-63
2024/02/15 02:31:48;;;;;;;5.80;4.18;;;;;;;11.58;100.00;100472.16;10205426;28;20059;-61
2024/02/15 02:36:50;;;;;;;5.10;4.03;;;;;;;11.71;100.00;100494.19;10195784;28;20070;-62
2024/02/15 02:41:52;;;;;;;4.97;3.65;;;;;;;11.74;100.00;100498.41;10202447;28;20149;-61
2024/02/15 02:46:54;;;;;;;6.05;3.75;;;;;;;11.63;100.00;100481.47;10196361;28;20226;-62
2024/02/15 02:51:55;;;;;;;4.88;3.30;;;;;;;11.68;100.00;100487.28;10215461;28;20564;-62
2024/02/15 02:56:59;;;;;;;6.18;4.05;;;;;;;11.68;100.00;100497.09;10197728;28;20056;-63
2024/02/15 03:02:03;;;;;;;5.15;3.55;;;;;;;11.76;100.00;100493.81;10174907;28;20051;-63
2024/02/15 03:07:05;;;;;;;3.73;3.37;;;;;;;11.76;100.00;100493.81;10199501;28;20044;-62
2024/02/15 03:12:06;;;;;;;4.57;3.05;;;;;;;11.77;100.00;100500.81;10202039;28;20095;-63
2024/02/15 03:17:09;;;;;;;5.57;3.30;;;;;;;11.74;100.00;100491.25;10198999;28;20043;-64
2024/02/15 03:22:13;;;;;;;4.50;3.45;;;;;;;11.75;100.00;100479.59;10198431;28;20051;-64
2024/02/15 03:27:14;;;;;;;6.43;3.55;;;;;;;11.68;100.00;100483.78;10196889;28;22520;-62
2024/02/15 03:32:16;;;;;;;7.47;3.65;;;;;;;11.74;100.00;100477.94;10207364;28;20058;-63
2024/02/15 03:37:20;;;;;;;4.53;3.15;;;;;;;11.65;100.00;100465.34;10204406;28;20145;-64
2024/02/15 03:42:22;;;;;;;6.10;3.50;;;;;;;11.74;100.00;100485.06;10201903;28;20094;-63
2024/02/15 03:47:23;;;;;;;4.43;4.03;;;;;;;11.78;100.00;100471.34;10204515;28;20113;-62
2024/02/15 03:52:25;;;;;;;4.28;3.58;;;;;;;11.84;100.00;100480.66;10215058;28;20050;-61
2024/02/15 03:57:27;;;;;;;4.85;3.90;;;;;;;11.85;100.00;100485.88;10200919;28;20893;-63
2024/02/15 04:02:30;;;;;;;4.07;3.15;;;;;;;11.89;100.00;100486.50;10204161;28;20102;-63
2024/02/15 04:07:32;;;;;;;6.95;3.67;;;;;;;11.84;100.00;100472.69;10205290;28;20058;-63
2024/02/15 04:12:33;;;;;;;5.32;3.33;;;;;;;11.91;100.00;100484.53;10203260;28;20043;-63
2024/02/15 04:17:35;;;;;;;7.88;4.43;;;;;;;11.85;100.00;100490.38;10204894;28;20614;-63
2024/02/15 04:22:38;;;;;;;3.95;3.38;;;;;;;11.83;100.00;100481.66;10202410;28;20055;-62
2024/02/15 04:27:39;;;;;;;5.32;3.92;;;;;;;11.82;100.00;100485.31;10188025;28;20074;-64
2024/02/15 04:32:41;;;;;;;3.97;3.00;;;;;;;11.80;100.00;100476.56;10202176;28;20109;-64
2024/02/15 04:37:42;;;;;;;5.10;3.20;;;;;;;11.85;100.00;100490.38;10200450;28;20210;-64
2024/02/15 04:42:46;;;;;;;5.80;3.47;;;;;;;11.86;100.00;100476.09;10204263;28;20117;-61
2024/02/15 04:47:51;;;;;;;4.40;3.38;;;;;;;11.94;100.00;100481.66;10197510;28;20705;-64
2024/02/15 04:52:52;;;;;;;4.50;3.50;;;;;;;11.90;100.00;100482.84;10201313;28;20055;-62
2024/02/15 04:57:54;;;;;;;4.25;2.72;;;;;;;11.90;100.00;100477.50;10185902;28;20058;-63
2024/02/15 05:02:58;;;;;;;5.30;3.15;;;;;;;11.93;100.00;100474.59;10196071;28;20192;-62
2024/02/15 05:08:01;;;;;;;5.75;3.17;;;;;;;11.91;100.00;100467.69;10208849;28;21035;-63
2024/02/15 05:13:03;;;;;;;4.50;3.55;;;;;;;11.94;100.00;100472.81;10201560;28;20055;-62
2024/02/15 05:18:08;;;;;;;4.65;2.90;;;;;;;12.00;100.00;100465.13;10199545;28;20055;-62
2024/02/15 05:23:09;;;;;;;5.60;2.65;;;;;;;12.02;100.00;100470.34;10201581;28;20573;-62
2024/02/15 05:28:12;;;;;;;4.40;3.00;;;;;;;11.97;100.00;100462.72;10198888;28;20780;-62
2024/02/15 05:33:14;;;;;;;6.15;3.42;;;;;;;11.95;100.00;100467.34;10202593;28;20051;-62
2024/02/15 05:38:17;;;;;;;4.45;3.22;;;;;;;11.95;100.00;100464.69;10186004;28;20058;-62
2024/02/15 05:43:18;;;;;;;4.60;2.55;;;;;;;11.98;100.00;100464.41;10197375;28;20055;-63
2024/02/15 05:48:21;;;;;;;6.13;3.50;;;;;;;12.00;100.00;100458.94;10192146;28;20190;-64
2024/02/15 05:53:24;;;;;;;5.03;2.85;;;;;;;12.02;100.00;100465.88;10205156;28;20274;-63
2024/02/15 05:58:25;;;;;;;4.10;2.58;;;;;;;11.98;100.00;100464.41;10204184;28;20143;-62
2024/02/15 06:03:34;;;;;;;5.85;3.17;;;;;;;12.00;100.00;100467.78;10197031;28;20060;-61
2024/02/15 06:08:37;;;;;;;5.55;3.30;;;;;;;11.98;100.00;100472.44;10181727;28;20648;-64
2024/02/15 06:13:39;;;;;;;4.78;2.50;;;;;;;12.01;100.00;100477.50;10196762;28;20055;-63
2024/02/15 06:18:40;;;;;;;4.10;2.88;;;;;;;12.00;100.00;100475.78;10198997;28;20054;-64
2024/02/15 06:23:42;;;;;;;4.78;3.45;;;;;;;12.08;100.00;100485.00;10189133;28;20055;-64
2024/02/15 06:39:42;;;;;;;6.95;3.58;;;;;;;12.21;100.00;100485.66;10200686;28;21060;-62
2024/02/15 06:44:46;;;;;;;13.73;4.85;;;;;;;12.25;100.00;100478.25;10199457;28;20046;-63
2024/02/15 06:49:51;;;;;;;6.65;3.35;;;;;;;12.15;100.00;100475.50;10193418;28;20047;-64
2024/02/15 06:54:53;;;;;;;6.38;3.65;;;;;;;12.19;100.00;100463.59;10189805;28;20054;-64
2024/02/15 06:59:56;;;;;;;5.30;3.60;;;;;;;12.23;100.00;100465.03;10198415;28;20059;-63
2024/02/15 07:04:58;;;;;;;5.47;3.80;;;;;;;12.19;100.00;100463.59;10198508;28;20094;-62
2024/02/15 07:10:02;;;;;;;4.97;3.75;;;;;;;12.18;100.00;100461.91;10206380;28;20054;-64
2024/02/15 07:15:06;;;;;;;5.85;4.47;;;;;;;12.06;100.00;100425.59;10164273;28;20054;-64
2024/02/15 07:20:11;;;;;;;6.88;4.60;;;;;;;12.14;100.00;100447.13;10198890;28;20563;-63
2024/02/15 07:25:12;;;;;;;;;;;;;;;12.03;100.00;100451.53;10190394;28;20142;-62
2024/02/15 07:30:15;;;;;;;5.50;3.80;;;;;;;12.08;100.00;100450.31;10200746;28;19930;-62
2024/02/15 07:35:17;;;;;;;7.72;4.30;;;;;;;12.15;100.00;100454.16;10193252;28;20054;-64
2024/02/15 07:40:21;;;;;;;6.93;3.58;;;;;;;12.25;100.00;100457.75;10206652;28;20107;-63
2024/02/15 07:45:23;;;;;;;;;;;;;;;12.35;100.00;100455.97;10194833;28;20051;-64
2024/02/15 07:50:24;;;;;;;7.78;4.25;;;;;;;12.43;100.00;100468.69;10196319;28;20328;-65
2024/02/15 07:55:26;;;;;;;6.85;3.83;;;;;;;12.45;100.00;100460.56;10188498;28;20083;-62
2024/02/15 08:00:27;;;;;;;3.47;3.05;;;;;;;12.53;100.00;100468.75;10186219;28;20102;-63
2024/02/15 08:05:29;;;;;;;7.20;3.72;;;;;;;12.63;100.00;100474.16;10184938;28;20066;-61
2024/02/15 08:10:30;;;;;;;5.22;3.15;;;;;;;12.60;100.00;100469.91;10195380;28;20055;-66
2024/02/15 08:15:33;;;;;;;14.50;3.80;;;;;;;12.60;100.00;100469.91;10198976;28;20047;-62
2024/02/15 08:20:34;;;;;;;4.90;3.33;;;;;;;12.64;100.00;100482.03;10196401;28;20194;-65
2024/02/15 08:25:40;;;;;;;4.97;3.30;;;;;;;12.53;100.00;100474.09;10199606;28;20055;-63
2024/02/15 08:30:41;;;;;;;4.65;3.35;;;;;;;12.62;100.00;100480.47;10198775;28;20595;-63
2024/02/15 08:35:43;;;;;;;4.43;2.92;;;;;;;12.65;100.00;100481.03;10189668;28;20056;-63
2024/02/15 08:40:47;;;;;;;4.93;3.67;;;;;;;12.68;100.00;100478.09;10189266;28;20051;-64
2024/02/15 08:45:48;;;;;;;8.90;4.40;;;;;;;12.73;100.00;100481.25;10202575;28;20083;-61
2024/02/15 08:50:51;;;;;;;6.65;3.42;;;;;;;12.74;100.00;100466.06;10198568;28;20063;-62
2024/02/15 08:55:52;;;;;;;4.55;3.55;;;;;;;12.93;100.00;100459.97;10199856;28;20511;-62
2024/02/15 09:00:54;;;;;;;6.63;3.38;;;;;;;12.99;100.00;100470.13;10188154;28;20112;-62
2024/02/15 09:06:02;;;;;;;6.20;4.20;;;;;;;13.07;100.00;100450.72;10202542;28;20077;-62
2024/02/15 09:11:04;;;;;;;4.57;3.00;;;;;;;13.09;100.00;100448.78;10181969;28;20039;-62
2024/02/15 09:16:07;;;;;;;4.40;3.15;;;;;;;13.26;100.00;100472.19;10153931;28;20143;-63
2024/02/15 09:21:08;;;;;;;4.25;3.17;;;;;;;13.27;100.00;100475.72;10193487;28;20071;-63
2024/02/15 09:26:10;;;;;;;4.78;2.80;;;;;;;13.38;100.00;100472.13;10191562;28;20365;-64
2024/02/15 09:31:14;;;;;;;4.88;2.55;;;;;;;13.40;99.75;100472.81;10176391;28;20079;-63
2024/02/15 09:36:16;;;;;;;4.75;3.15;;;;;;;13.52;99.92;100465.53;10214536;28;20059;-62
2024/02/15 09:41:18;;;;;;;6.10;2.97;;;;;;;13.58;97.40;100471.16;10199042;28;20062;-63
2024/02/15 09:46:20;;;;;;;5.35;2.55;;;;;;;13.68;96.72;100457.81;10187388;28;20058;-61
2024/02/15 09:51:23;;;;;;;5.50;2.50;;;;;;;13.75;97.25;100456.28;10184952;28;20063;-64
2024/02/15 09:56:26;;;;;;;6.32;2.63;;;;;;;13.81;97.66;100446.88;10201975;28;20126;-64
2024/02/15 10:01:32;;;;;;;3.92;3.03;;;;;;;13.91;94.98;100454.88;10199926;28;20059;-62
2024/02/15 10:06:33;;;;;;;3.28;2.45;;;;;;;14.08;94.32;100458.69;10201029;28;20154;-66
2024/02/15 10:11:35;;;;;;;6.43;2.45;;;;;;;14.41;91.07;100448.50;10173573;28;20060;-63
2024/02/15 10:16:36;;;;;;;4.15;2.38;;;;;;;14.35;90.42;100425.81;10198296;28;20193;-61
2024/02/15 10:21:40;;;;;;;3.63;2.15;;;;;;;14.48;89.26;100431.72;10199446;28;20051;-63
2024/02/15 10:26:43;;;;;;;3.78;2.28;;;;;;;14.90;88.82;100440.38;10214480;28;20065;-63
2024/02/15 10:31:53;;;;;;;3.33;2.27;;;;;;;15.01;86.49;100432.13;10190354;28;20090;-65
2024/02/15 10:37:11;;;;;;;9.48;3.10;;;;;;;15.11;86.69;100427.56;10153350;28;20709;-65
2024/02/15 10:42:15;;;;;;;5.53;2.78;;;;;;;14.85;85.19;100401.47;10197392;28;20055;-65
2024/02/15 10:47:19;;;;;;;5.15;2.38;;;;;;;14.93;86.87;100421.31;10206504;28;20058;-64
2024/02/15 10:52:30;;;;;;;4.07;2.50;;;;;;;14.92;86.59;100408.91;10196454;28;20397;-65
2024/02/15 10:57:35;;;;;;;4.57;2.30;;;;;;;14.92;86.55;100407.09;10195781;28;20047;-64
2024/02/15 11:02:37;;;;;;;4.80;2.22;;;;;;;15.07;87.43;100399.38;10198217;28;20094;-65
2024/02/15 11:07:39;;;;;;;4.68;2.80;;;;;;;15.12;84.79;100393.59;10214545;28;20505;-65
2024/02/15 11:12:42;;;;;;;4.85;2.90;;;;;;;15.23;83.38;100392.53;10188172;28;20139;-63
2024/02/15 11:17:50;;;;;;;6.75;2.40;;;;;;;15.36;84.78;100382.28;10195241;28;20059;-61
2024/02/15 11:22:57;;;;;;;6.70;2.90;;;;;;;15.51;82.89;100383.44;10194084;28;20055;-63
2024/02/15 11:28:27;;;;;;;4.90;2.25;;;;;;;15.58;82.64;100374.78;10193085;28;20058;-64
2024/02/15 11:33:36;;;;;;;4.25;2.13;;;;;;;15.93;80.65;100362.34;10192143;28;20142;-64
2024/02/15 11:38:41;;;;;;;5.10;2.85;;;;;;;16.08;78.52;100350.06;10186320;28;20066;-65
2024/02/15 11:43:49;;;;;;;6.80;2.10;;;;;;;16.12;78.05;100345.22;10195424;28;20047;-65
2024/02/15 11:48:56;;;;;;;3.63;2.38;;;;;;;16.09;77.64;100341.00;10196815;28;20437;-64
2024/02/15 11:54:08;;;;;;;2.88;1.50;;;;;;;15.98;76.42;100320.63;10203627;28;20529;-64
2024/02/15 11:59:18;;;;;;;2.92;1.80;;;;;;;16.38;76.24;100335.31;10212159;28;20077;-64
2024/02/15 12:20:25;;;;;;;3.50;1.42;;;;;;;18.18;66.90;100306.25;10185081;28;20519;-64
2024/02/15 12:25:28;;;;;;;5.37;2.20;;;;;;;18.71;62.82;100307.41;10208595;28;20058;-65
2024/02/15 12:30:36;;;;;;;2.88;1.00;;;;;;;18.66;59.75;100296.31;10197271;28;20058;-66
2024/02/15 12:35:39;;;;;;;2.30;0.93;;;;;;;18.57;60.28;100297.38;10206125;28;20051;-67
2024/02/15 12:40:41;;;;;;;4.20;1.10;;;;;;;18.11;60.64;100286.41;10196053;28;20927;-65
2024/02/15 12:45:46;;;;;;;4.75;1.23;;;;;;;17.80;62.94;100297.84;10200422;28;20125;-66
2024/02/15 12:50:48;;;;;;;2.78;1.08;;;;;;;17.67;63.70;100287.63;10178766;28;20059;-66
2024/02/15 12:55:57;;;;;;;3.08;0.90;;;;;;;17.71;63.73;100282.72;10200781;28;20050;-66
2024/02/15 13:00:58;;;;;;;4.32;1.73;;;;;;;17.91;63.14;100272.47;10182785;28;20055;-64
2024/02/15 13:06:00;;;;;;;3.05;0.98;;;;;;;18.09;62.98;100246.19;10185251;28;20090;-65
2024/02/15 13:11:03;;;;;;;2.80;0.82;;;;;;;18.49;60.25;100259.66;10181435;28;20059;-64
2024/02/15 13:16:07;;;;;;;2.53;1.10;;;;;;;18.71;62.11;100252.66;10187562;28;20098;-64
2024/02/15 13:21:10;;;;;;;3.60;0.80;;;;;;;18.62;61.33;100259.94;10199284;28;20424;-66
2024/02/15 13:26:11;;;;;;;2.03;0.57;;;;;;;18.51;59.51;100252.22;10197776;28;20199;-68
2024/02/15 13:31:13;;;;;;;2.63;1.15;;;;;;;18.46;60.97;100247.38;10209934;28;20059;-65
2024/02/15 13:36:15;;;;;;;7.53;1.60;;;;;;;18.18;62.16;100237.06;10183800;28;20063;-67
2024/02/15 13:41:17;;;;;;;1.95;1.08;;;;;;;17.87;63.66;100228.03;10198806;28;20059;-67
2024/02/15 13:46:20;;;;;;;3.30;1.77;;;;;;;17.76;63.51;100227.38;10183631;28;20052;-67
2024/02/15 13:51:21;;;;;;;2.00;0.83;;;;;;;17.66;62.08;100222.16;10200307;28;21012;-66
2024/02/15 13:56:23;;;;;;;4.40;1.15;;;;;;;17.55;64.56;100219.84;10199719;28;20704;-64
2024/02/15 14:01:25;;;;;;;4.13;1.30;;;;;;;17.39;63.71;100212.59;10200842;28;20065;-65
2024/02/15 14:06:26;;;;;;;4.82;0.88;;;;;;;17.31;64.40;100212.63;10205373;28;20891;-68
2024/02/15 14:11:29;;;;;;;8.25;2.35;;;;;;;17.26;64.96;100197.00;10215879;28;20211;-65
2024/02/15 14:16:31;;;;;;;4.80;1.00;;;;;;;17.30;65.37;100206.38;10202744;28;20194;-68
2024/02/15 14:21:38;;;;;;;4.13;0.95;;;;;;;17.29;65.02;100190.41;10208104;28;20061;-68
2024/02/15 14:26:40;;;;;;;4.30;1.33;;;;;;;17.23;64.68;100191.91;10209667;28;20046;-64
2024/02/15 14:37:05;;;;;;;4.15;1.45;;;;;;;17.01;64.54;100173.75;10168791;28;20688;-68
2024/02/15 14:42:07;;;;;;;4.45;1.50;;;;;;;16.94;64.99;100174.44;10195415;28;20068;-64
2024/02/15 14:47:13;;;;;;;5.72;2.10;;;;;;;16.87;66.04;100165.34;10199120;28;20125;-65
2024/02/15 14:52:14;;;;;;;10.40;2.92;;;;;;;16.80;65.72;100158.94;10196576;28;20059;-64
2024/02/15 14:57:17;;;;;;;3.85;1.38;;;;;;;16.66;65.73;100154.22;10196140;28;20219;-63
2024/02/15 15:02:24;;;;;;;4.00;1.75;;;;;;;16.60;66.37;100150.34;10203259;28;20062;-64
2024/02/15 15:12:45;;;;;;;3.35;1.85;;;;;;;16.50;67.09;100145.13;10208824;28;20064;-64
2024/02/15 15:17:47;;;;;;;2.80;1.60;;;;;;;16.39;67.03;100148.09;10193411;28;20122;-67
2024/02/15 15:22:49;;;;;;;4.50;1.63;;;;;;;16.35;68.38;100146.75;10205410;28;20047;-63
2024/02/15 15:27:50;;;;;;;3.65;1.00;;;;;;;16.28;67.46;100143.88;10199547;28;20536;-67
2024/02/15 15:32:52;;;;;;;5.10;3.15;;;;;;;16.22;68.46;100150.75;10201460;28;20142;-62
2024/02/15 15:37:55;;;;;;;3.13;2.38;;;;;;;16.05;68.97;100122.19;10206999;28;20110;-66
2024/02/15 15:42:57;;;;;;;5.25;1.50;;;;;;;16.22;69.72;100131.13;10190729;28;20725;-65
2024/02/15 15:48:00;;;;;;;5.32;1.48;;;;;;;16.24;71.88;100129.09;10196206;28;20093;-65
2024/02/15 15:53:04;;;;;;;3.15;1.80;;;;;;;16.19;72.91;100121.53;10206401;28;20076;-64
2024/02/15 15:58:07;;;;;;;4.95;1.92;;;;;;;16.14;73.33;100126.56;10201879;28;20119;-65
2024/02/15 16:03:08;;;;;;;4.72;1.90;;;;;;;16.06;73.88;100115.78;10221563;28;20142;-63
2024/02/15 16:08:11;;;;;;;5.30;2.22;;;;;;;15.97;74.12;100101.47;10209422;28;20060;-65
2024/02/15 16:13:13;;;;;;;5.70;2.22;;;;;;;15.97;74.40;100101.47;10208267;28;20070;-65
2024/02/15 16:18:14;;;;;;;4.10;2.50;;;;;;;15.94;75.28;100107.19;10217221;28;20157;-64
2024/02/15 16:23:17;;;;;;;4.43;1.92;;;;;;;15.75;75.77;100081.44;10210722;28;20594;-64
2024/02/15 16:28:19;;;;;;;5.10;2.40;;;;;;;15.86;75.94;100105.31;10205711;28;20055;-67
2024/02/15 16:33:20;;;;;;;4.25;3.25;;;;;;;15.82;76.33;100095.06;10208881;28;20062;-65
2024/02/15 16:38:23;;;;;;;6.57;4.63;;;;;;;15.81;76.91;100090.72;10207775;28;20087;-65
2024/02/15 16:43:25;;;;;;;6.20;3.85;;;;;;;15.65;77.20;100076.19;10177678;28;20055;-67
2024/02/15 16:48:27;;;;;;;8.90;4.03;;;;;;;15.71;78.06;100088.13;10201305;28;20141;-65
2024/02/15 16:53:29;;;;;;;6.63;3.92;;;;;;;15.69;77.67;100095.50;10197558;28;20421;-64
2024/02/15 16:58:31;;;;;;;6.53;4.85;;;;;;;15.66;77.91;100082.41;10198421;28;20137;-66
2024/02/15 17:03:32;;;;;;;9.05;5.50;;;;;;;15.66;77.61;100093.13;10206798;28;20052;-67
2024/02/15 17:08:33;;;;;;;7.32;4.75;;;;;;;15.55;77.39;100081.69;10193952;28;20075;-66
2024/02/15 17:13:40;;;;;;;7.35;3.67;;;;;;;15.55;76.80;100096.91;10183982;28;20059;-64
2024/02/15 17:18:42;;;;;;;6.95;4.03;;;;;;;15.54;76.62;100096.09;10215584;28;20055;-65
2024/02/15 17:23:45;;;;;;;5.43;3.38;;;;;;;15.54;76.68;100096.09;10197543;28;20048;-65
2024/02/15 17:28:47;;;;;;;6.43;3.70;;;;;;;15.53;76.21;100098.94;10198487;28;20994;-65
2024/02/15 17:33:48;;;;;;;7.15;3.80;;;;;;;15.40;75.05;100083.25;10195610;28;20055;-66
2024/02/15 17:38:50;;;;;;;7.00;3.20;;;;;;;15.40;75.76;100093.97;10201109;28;20067;-65
2024/02/15 17:43:56;;;;;;;7.88;3.17;;;;;;;15.41;76.83;100090.31;10195493;28;20058;-67
2024/02/15 17:48:59;;;;;;;8.10;3.75;;;;;;;15.40;76.56;100082.41;10194824;28;20146;-64
2024/02/15 17:54:00;;;;;;;6.35;3.22;;;;;;;15.35;75.91;100077.53;10195142;28;20524;-64
2024/02/15 17:59:03;;;;;;;3.65;3.17;;;;;;;15.33;76.75;100072.34;10190324;28;20059;-64
2024/02/15 18:04:06;;;;;;;7.32;2.97;;;;;;;15.32;77.00;100065.28;10197950;28;20119;-64
2024/02/15 18:09:08;;;;;;;6.53;3.55;;;;;;;15.29;75.50;100067.44;10195140;28;20158;-65
2024/02/15 18:14:09;;;;;;;6.03;3.78;;;;;;;15.24;76.46;100051.84;10207434;28;20062;-64
2024/02/15 18:19:10;;;;;;;9.80;4.32;;;;;;;15.17;76.65;100027.50;10202013;28;20149;-65
2024/02/15 18:24:12;;;;;;;8.38;3.95;;;;;;;15.08;77.31;100024.94;10192673;28;20510;-64
2024/02/15 18:29:14;;;;;;;8.60;4.20;;;;;;;15.07;78.02;100034.78;10183148;28;20063;-64
2024/02/15 18:34:15;;;;;;;5.07;3.67;;;;;;;15.08;77.86;100028.44;10208800;28;21323;-65
2024/02/15 18:39:18;;;;;;;9.75;5.28;;;;;;;15.03;77.04;100034.28;10195703;28;20085;-66
2024/02/15 18:44:19;;;;;;;9.07;3.92;;;;;;;15.05;76.16;100036.81;10206568;28;20077;-65
2024/02/15 18:49:20;;;;;;;7.30;3.63;;;;;;;15.06;75.47;100038.50;10178104;28;20839;-64
2024/02/15 18:54:37;;;;;;;;;;;;;;;15.02;74.40;100029.91;10192234;28;20200;-65
2024/02/15 18:59:39;;;;;;;4.73;2.53;;;;;;;15.01;73.54;100019.34;10199193;28;20112;-65
2024/02/15 19:04:41;;;;;;;4.80;2.85;;;;;;;14.95;73.20;100018.16;10203040;28;20078;-64
2024/02/15 19:09:43;;;;;;;5.95;2.85;;;;;;;14.90;73.90;100020.47;10199597;28;20717;-65
2024/02/15 19:14:44;;;;;;;4.32;2.55;;;;;;;14.89;73.29;100020.63;10196290;28;20134;-65
2024/02/15 19:19:46;;;;;;;4.20;2.22;;;;;;;14.83;73.75;100004.19;10184189;28;20066;-66
2024/02/15 19:24:50;;;;;;;4.85;1.98;;;;;;;14.89;73.29;100007.22;10182139;28;20066;-65
2024/02/15 19:29:51;;;;;;;4.32;2.10;;;;;;;14.81;74.37;100002.66;10183944;28;21381;-65
2024/02/15 19:34:53;;;;;;;4.32;2.72;;;;;;;14.89;73.99;99996.50;10182320;28;20473;-64
2024/02/15 19:39:55;;;;;;;3.38;2.50;;;;;;;14.91;75.09;99997.19;10202702;28;20066;-65
2024/02/15 19:44:57;;;;;;;4.53;2.53;;;;;;;14.80;74.00;99982.19;10181419;28;20051;-64
2024/02/15 19:49:58;;;;;;;4.15;2.20;;;;;;;14.82;74.38;99986.41;10191646;28;20058;-63
2024/02/15 19:55:00;;;;;;;6.00;3.03;;;;;;;14.78;74.48;99986.88;10197015;28;20513;-65
2024/02/15 20:00:04;;;;;;;8.48;4.70;;;;;;;14.73;74.49;99973.97;10183319;28;20633;-64
2024/02/15 20:05:06;;;;;;;8.90;4.35;;;;;;;14.62;74.73;99977.75;10195251;28;20051;-65
2024/02/15 20:10:09;;;;;;;5.37;2.87;;;;;;;14.59;75.41;99966.47;10194459;28;20052;-67
2024/02/15 20:15:12;;;;;;;5.68;3.65;;;;;;;14.57;74.78;99965.78;10203421;28;20310;-64
2024/02/15 20:20:16;;;;;;;;;;;;;;;14.47;75.05;99957.81;10199897;28;20098;-65
2024/02/15 20:25:20;;;;;;;6.75;2.40;;;;;;;14.44;75.04;99952.78;10201937;28;19926;-66
2024/02/15 20:30:22;;;;;;;4.73;2.30;;;;;;;14.38;75.17;99943.56;10206954;28;20058;-66
2024/02/15 20:35:24;;;;;;;4.68;2.60;;;;;;;14.23;75.59;99927.22;10206402;28;20158;-66
2024/02/15 20:40:25;;;;;;;5.25;2.47;;;;;;;14.33;75.58;99957.38;10192785;28;20057;-65
2024/02/15 20:45:27;;;;;;;3.80;2.70;;;;;;;14.28;75.32;99948.16;10199876;28;20225;-64
2024/02/15 20:50:28;;;;;;;2.70;2.10;;;;;;;14.26;75.60;99945.66;10209785;28;20073;-65
2024/02/15 20:55:31;;;;;;;2.97;2.33;;;;;;;14.24;75.69;99931.56;10202502;28;20075;-65
2024/02/15 21:00:35;;;;;;;4.15;2.28;;;;;;;14.24;75.37;99947.63;10191018;28;20051;-66
2024/02/15 21:05:38;;;;;;;3.17;2.40;;;;;;;14.30;75.33;99948.84;10188901;28;20106;-65
2024/02/15 21:10:40;;;;;;;3.25;2.17;;;;;;;14.32;74.99;99944.16;10202807;28;20486;-66
2024/02/15 21:15:42;;;;;;;3.80;1.90;;;;;;;14.34;74.92;99947.53;10220048;28;20066;-65
2024/02/15 21:20:44;;;;;;;3.97;2.42;;;;;;;14.33;74.62;99945.84;10202417;28;20054;-66
2024/02/15 21:25:45;;;;;;;2.58;1.70;;;;;;;14.34;74.74;99934.16;10205555;28;20051;-64
2024/02/15 21:30:47;;;;;;;3.90;1.80;;;;;;;14.29;74.64;99939.97;10201028;28;20072;-66
2024/02/15 21:35:50;;;;;;;3.70;2.92;;;;;;;14.29;75.52;99934.63;10184137;28;20830;-64
2024/02/15 21:40:52;;;;;;;3.27;2.20;;;;;;;14.27;74.71;99919.69;10201905;28;20060;-64
2024/02/15 21:45:54;;;;;;;5.80;2.55;;;;;;;14.09;75.01;99901.00;10200090;28;20047;-65
2024/02/15 21:50:56;;;;;;;3.83;2.05;;;;;;;14.26;75.82;99923.38;10192972;28;20366;-69
2024/02/15 21:55:58;;;;;;;3.92;2.00;;;;;;;14.22;75.37;99917.50;10193890;28;20066;-64
2024/02/15 22:01:02;;;;;;;3.63;1.80;;;;;;;14.26;75.27;99918.00;10176858;28;20046;-65
2024/02/15 22:06:05;;;;;;;2.88;2.17;;;;;;;14.22;75.16;99906.78;10201925;28;20047;-65
2024/02/15 22:11:10;;;;;;;3.08;2.03;;;;;;;14.27;75.43;99917.03;10197590;28;20477;-65
2024/02/15 22:16:15;;;;;;;2.90;1.63;;;;;;;14.14;75.10;99910.25;10182293;28;20082;-64
2024/02/15 22:21:17;;;;;;;6.03;1.98;;;;;;;14.23;75.38;99921.00;10195366;28;20043;-65
2024/02/15 22:26:22;;;;;;;3.17;2.50;;;;;;;14.27;76.42;99925.88;10194640;28;20059;-66
2024/02/15 22:31:24;;;;;;;3.42;2.22;;;;;;;14.13;75.95;99911.22;10197531;28;20635;-65
2024/02/15 22:36:28;;;;;;;5.15;2.50;;;;;;;14.17;76.22;99919.78;10206658;28;20130;-64
2024/02/15 22:41:30;;;;;;;3.45;2.35;;;;;;;14.12;77.11;99917.56;10179284;28;20066;-65
2024/02/15 22:46:32;;;;;;;5.10;2.05;;;;;;;14.11;77.13;99918.59;10196847;28;20138;-65
2024/02/15 22:51:36;;;;;;;4.30;2.47;;;;;;;14.06;77.04;99923.53;10201847;28;20967;-66
2024/02/15 22:56:38;;;;;;;5.22;3.10;;;;;;;14.04;78.01;99912.16;10186993;28;20108;-66
2024/02/15 23:01:40;;;;;;;4.10;2.35;;;;;;;14.05;77.28;99921.03;10189536;28;20065;-64
2024/02/15 23:06:45;;;;;;;3.78;2.20;;;;;;;13.89;77.23;99903.00;10191853;28;20058;-64
2024/02/15 23:11:46;;;;;;;3.40;2.42;;;;;;;14.02;77.61;99922.19;10180090;28;20454;-64
2024/02/15 23:16:49;;;;;;;3.45;2.08;;;;;;;14.01;77.88;99925.84;10205239;28;20074;-66
2024/02/15 23:21:51;;;;;;;4.07;2.25;;;;;;;13.99;76.86;99927.00;10199981;28;20133;-64
2024/02/15 23:26:54;;;;;;;5.03;2.75;;;;;;;14.00;77.57;99917.97;10204210;28;20173;-64
2024/02/15 23:31:57;;;;;;;4.40;2.10;;;;;;;13.99;76.71;99938.56;10215656;28;20122;-65
2024/02/15 23:42:19;;;;;;;3.97;2.13;;;;;;;13.99;76.84;99935.88;10201276;28;20069;-65
2024/02/15 23:47:22;;;;;;;4.05;2.17;;;;;;;13.96;77.17;99936.16;10209456;28;20218;-64
2024/02/15 23:52:24;;;;;;;2.55;1.90;;;;;;;13.96;77.55;99944.19;10206892;28;20137;-64